createdAt,value
2016-08-29T00:00:31.506Z,90.84
2016-08-29T00:01:31.533Z,91.23
2016-08-29T00:02:31.561Z,90.94
2016-08-29T00:03:30.870Z,91.42
2016-08-29T00:04:31.606Z,91.71
2016-08-29T00:05:31.629Z,91.61
2016-08-29T00:06:30.946Z,92.1
2016-08-29T00:07:30.962Z,92.29
2016-08-29T00:08:31.715Z,92.05
2016-08-29T00:09:31.024Z,92.24
2016-08-29T00:10:31.754Z,93.1
2016-08-29T00:11:31.068Z,93.3
2016-08-29T00:12:31.791Z,93.01
2016-08-29T00:13:31.944Z,93.54
2016-08-29T00:14:31.851Z,94.02
2016-08-29T00:15:31.941Z,94.02
2016-08-29T00:16:31.191Z,94.98
2016-08-29T00:17:31.214Z,95.07
2016-08-29T00:18:31.236Z,95.17
2016-08-29T00:19:31.965Z,95.07
2016-08-29T00:20:31.286Z,94.98
2016-08-29T00:21:32.025Z,94.69
2016-08-29T00:22:32.033Z,95.36
2016-08-29T00:23:31.353Z,94.79
2016-08-29T00:24:31.454Z,95.07
2016-08-29T00:25:31.402Z,94.69
2016-08-29T00:26:32.146Z,94.88
2016-08-29T00:27:31.451Z,95.17
2016-08-29T00:28:31.485Z,95.26
2016-08-29T00:29:31.513Z,94.69
2016-08-29T00:30:31.524Z,94.79
2016-08-29T00:31:32.254Z,94.88
2016-08-29T00:32:32.301Z,94.49
2016-08-29T00:33:32.302Z,94.12
2016-08-29T00:34:32.325Z,94.49
2016-08-29T00:35:31.649Z,93.35
2016-08-29T00:36:31.673Z,93.3
2016-08-29T00:37:31.767Z,93.1
2016-08-29T00:38:32.444Z,93.1
2016-08-29T00:39:31.745Z,93.3
2016-08-29T00:40:32.478Z,92.91
2016-08-29T00:41:31.782Z,93.39
2016-08-29T00:42:32.524Z,93.3
2016-08-29T00:43:32.544Z,93.39
2016-08-29T00:44:31.853Z,93.01
2016-08-29T00:45:31.883Z,92.91
2016-08-29T00:46:32.642Z,93.97
2016-08-29T00:47:32.635Z,94.16
2016-08-29T00:48:32.694Z,93.59
2016-08-29T00:49:31.984Z,93.77
2016-08-29T00:50:32.709Z,94.07
2016-08-29T00:51:32.739Z,94.35
2016-08-29T00:52:32.062Z,93.92
2016-08-29T00:53:32.792Z,94.31
2016-08-29T00:54:32.103Z,94.83
2016-08-29T00:55:32.835Z,94.69
2016-08-29T00:56:32.855Z,95.94
2016-08-29T00:57:32.877Z,95.94
2016-08-29T00:58:32.205Z,96.42
2016-08-29T00:59:32.212Z,96.99
2016-08-29T01:00:32.958Z,96.94
2016-08-29T01:01:32.975Z,96.47
2016-08-29T01:02:32.998Z,97.14
2016-08-29T01:03:32.323Z,97.14
2016-08-29T01:04:33.045Z,97.61
2016-08-29T01:05:33.072Z,98
2016-08-29T01:06:32.392Z,98.28
2016-08-29T01:07:33.116Z,98
2016-08-29T01:08:33.143Z,98.19
2016-08-29T01:09:33.213Z,98.1
2016-08-29T01:10:33.193Z,97.81
2016-08-29T01:11:33.214Z,97.09
2016-08-29T01:12:33.237Z,97.19
2016-08-29T01:13:33.283Z,96.89
2016-08-29T01:14:32.585Z,96.89
2016-08-29T01:15:33.301Z,96.61
2016-08-29T01:16:33.343Z,96.51
2016-08-29T01:17:32.649Z,96.42
2016-08-29T01:18:33.406Z,96.99
2016-08-29T01:19:33.402Z,97.19
2016-08-29T01:20:32.725Z,97.09
2016-08-29T01:21:33.442Z,96.8
2016-08-29T01:22:32.772Z,96.8
2016-08-29T01:23:33.505Z,96.61
2016-08-29T01:24:33.525Z,96.56
2016-08-29T01:25:33.549Z,96.7
2016-08-29T01:26:33.582Z,97.14
2016-08-29T01:27:33.694Z,97.14
2016-08-29T01:28:32.913Z,97.14
2016-08-29T01:29:32.933Z,97.23
2016-08-29T01:30:32.948Z,97.71
2016-08-29T01:31:33.679Z,98.28
2016-08-29T01:32:33.710Z,98.28
2016-08-29T01:33:33.745Z,99.15
2016-08-29T01:34:33.771Z,98.96
2016-08-29T01:35:33.782Z,99.05
2016-08-29T01:36:33.803Z,98.91
2016-08-29T01:37:33.824Z,99.05
2016-08-29T01:38:33.854Z,98.81
2016-08-29T01:39:33.881Z,99.01
2016-08-29T01:40:33.191Z,99.29
2016-08-29T01:41:33.224Z,99.58
2016-08-29T01:42:33.937Z,99.48
2016-08-29T01:43:33.960Z,99.99
2016-08-29T01:44:33.981Z,99.77
2016-08-29T01:45:33.387Z,99.87
2016-08-29T01:46:34.047Z,99.99
2016-08-29T01:47:33.364Z,99.99
2016-08-29T01:48:34.079Z,99.99
2016-08-29T01:49:33.394Z,99.99
2016-08-29T01:50:34.135Z,99.96
2016-08-29T01:51:33.443Z,99.99
2016-08-29T01:52:34.174Z,99.99
2016-08-29T01:53:34.200Z,99.99
2016-08-29T01:54:34.235Z,99.99
2016-08-29T01:55:34.248Z,99.99
2016-08-29T01:56:34.277Z,99.99
2016-08-29T01:57:34.293Z,99.99
2016-08-29T01:58:34.364Z,99.99
2016-08-29T01:59:34.340Z,99.99
2016-08-29T02:00:33.702Z,99.99
2016-08-29T02:01:34.384Z,99.99
2016-08-29T02:02:34.423Z,99.99
2016-08-29T02:03:34.425Z,99.99
2016-08-29T02:04:34.453Z,99.99
2016-08-29T02:05:34.491Z,99.99
2016-08-29T02:06:34.504Z,99.99
2016-08-29T02:07:34.544Z,99.99
2016-08-29T02:08:34.549Z,99.87
2016-08-29T02:09:33.923Z,99.58
2016-08-29T02:10:33.881Z,99.24
2016-08-29T02:11:34.632Z,99.15
2016-08-29T02:12:34.655Z,98.86
2016-08-29T02:13:34.655Z,98.38
2016-08-29T02:14:34.689Z,98.1
2016-08-29T02:15:34.721Z,98.1
2016-08-29T02:16:34.732Z,97.28
2016-08-29T02:17:34.051Z,97.19
2016-08-29T02:18:34.784Z,96.89
2016-08-29T02:19:34.109Z,97.19
2016-08-29T02:20:34.843Z,96.61
2016-08-29T02:21:34.153Z,96.7
2016-08-29T02:22:34.169Z,96.32
2016-08-29T02:23:34.196Z,96.22
2016-08-29T02:24:34.931Z,95.84
2016-08-29T02:25:34.942Z,95.75
2016-08-29T02:26:34.272Z,95.75
2016-08-29T02:27:34.289Z,95.6
2016-08-29T02:28:34.317Z,95.31
2016-08-29T02:29:35.041Z,94.69
2016-08-29T02:30:34.362Z,95.12
2016-08-29T02:31:34.385Z,94.93
2016-08-29T02:32:35.108Z,95.12
2016-08-29T02:33:35.212Z,95.03
2016-08-29T02:34:35.153Z,94.83
2016-08-29T02:35:34.483Z,94.64
2016-08-29T02:36:34.501Z,95.03
2016-08-29T02:37:35.292Z,95.03
2016-08-29T02:38:35.252Z,95.12
2016-08-29T02:39:35.289Z,95.21
2016-08-29T02:40:34.592Z,95.21
2016-08-29T02:41:34.613Z,94.83
2016-08-29T02:42:35.356Z,94.83
2016-08-29T02:43:35.370Z,94.83
2016-08-29T02:44:34.692Z,95.03
2016-08-29T02:45:34.733Z,94.74
2016-08-29T02:46:35.490Z,95.03
2016-08-29T02:47:35.469Z,95.03
2016-08-29T02:48:34.784Z,94.74
2016-08-29T02:49:34.826Z,95.03
2016-08-29T02:50:35.541Z,95.03
2016-08-29T02:51:35.573Z,95.12
2016-08-29T02:52:35.593Z,94.93
2016-08-29T02:53:34.912Z,95.03
2016-08-29T02:54:35.641Z,95.12
2016-08-29T02:55:35.662Z,95.12
2016-08-29T02:56:34.980Z,95.03
2016-08-29T02:57:35.007Z,95.12
2016-08-29T02:58:35.032Z,95.31
2016-08-29T02:59:35.760Z,94.74
2016-08-29T03:00:35.831Z,94.83
2016-08-29T03:01:35.832Z,95.03
2016-08-29T03:02:35.123Z,95.03
2016-08-29T03:03:35.856Z,95.03
2016-08-29T03:04:35.887Z,95.21
2016-08-29T03:05:35.196Z,95.03
2016-08-29T03:06:36.030Z,94.83
2016-08-29T03:07:35.957Z,95.03
2016-08-29T03:08:35.974Z,95.31
2016-08-29T03:09:36.051Z,94.59
2016-08-29T03:10:36.033Z,95.12
2016-08-29T03:11:36.060Z,95.03
2016-08-29T03:12:35.372Z,95.03
2016-08-29T03:13:36.092Z,94.74
2016-08-29T03:14:36.123Z,95.31
2016-08-29T03:15:35.454Z,94.83
2016-08-29T03:16:35.472Z,95.41
2016-08-29T03:17:36.201Z,95.21
2016-08-29T03:18:36.214Z,94.74
2016-08-29T03:19:36.289Z,95.21
2016-08-29T03:20:35.552Z,95.12
2016-08-29T03:21:36.290Z,95.21
2016-08-29T03:22:36.311Z,95.03
2016-08-29T03:23:35.632Z,94.93
2016-08-29T03:24:36.362Z,95.26
2016-08-29T03:25:36.385Z,95.07
2016-08-29T03:26:35.700Z,95.21
2016-08-29T03:27:36.432Z,95.21
2016-08-29T03:28:35.750Z,95.21
2016-08-29T03:29:36.483Z,95.31
2016-08-29T03:30:35.801Z,94.74
2016-08-29T03:31:36.540Z,95.31
2016-08-29T03:32:36.552Z,95.12
2016-08-29T03:33:36.573Z,95.31
2016-08-29T03:34:36.603Z,95.31
2016-08-29T03:35:35.923Z,95.36
2016-08-29T03:36:35.952Z,95.36
2016-08-29T03:37:36.705Z,95.55
2016-08-29T03:38:35.994Z,95.55
2016-08-29T03:39:36.727Z,95.26
2016-08-29T03:40:36.751Z,95.07
2016-08-29T03:41:36.060Z,94.83
2016-08-29T03:42:36.083Z,95.36
2016-08-29T03:43:36.114Z,95.03
2016-08-29T03:44:36.132Z,95.55
2016-08-29T03:45:36.874Z,95.45
2016-08-29T03:46:36.188Z,95.26
2016-08-29T03:47:36.931Z,95.17
2016-08-29T03:48:36.230Z,95.26
2016-08-29T03:49:36.259Z,95.65
2016-08-29T03:50:36.282Z,95.55
2016-08-29T03:51:36.313Z,95.07
2016-08-29T03:52:37.152Z,95.36
2016-08-29T03:53:37.062Z,95.45
2016-08-29T03:54:37.102Z,95.94
2016-08-29T03:55:37.111Z,95.94
2016-08-29T03:56:36.423Z,95.75
2016-08-29T03:57:36.448Z,95.94
2016-08-29T03:58:36.473Z,95.94
2016-08-29T03:59:36.503Z,95.65
2016-08-29T04:00:37.233Z,95.75
2016-08-29T04:01:37.252Z,95.65
2016-08-29T04:02:36.571Z,95.65
2016-08-29T04:03:36.595Z,95.84
2016-08-29T04:04:36.615Z,95.98
2016-08-29T04:05:36.649Z,96.32
2016-08-29T04:06:36.683Z,96.03
2016-08-29T04:07:36.704Z,96.22
2016-08-29T04:08:36.716Z,96.61
2016-08-29T04:09:37.504Z,96.27
2016-08-29T04:10:37.481Z,96.22
2016-08-29T04:11:37.503Z,96.22
2016-08-29T04:12:37.521Z,96.47
2016-08-29T04:13:37.555Z,96.7
2016-08-29T04:14:37.575Z,96.89
2016-08-29T04:15:36.883Z,97.04
2016-08-29T04:16:36.908Z,97.19
2016-08-29T04:17:36.931Z,96.7
2016-08-29T04:18:36.958Z,96.94
2016-08-29T04:19:37.693Z,97.04
2016-08-29T04:20:37.723Z,96.75
2016-08-29T04:21:37.744Z,97.14
2016-08-29T04:22:37.134Z,96.85
2016-08-29T04:23:37.799Z,96.75
2016-08-29T04:24:37.814Z,97.24
2016-08-29T04:25:37.144Z,97.04
2016-08-29T04:26:37.162Z,97.52
2016-08-29T04:27:37.271Z,97.14
2016-08-29T04:28:37.204Z,98.29
2016-08-29T04:29:37.229Z,97.81
2016-08-29T04:30:37.964Z,97.33
2016-08-29T04:31:37.981Z,97.52
2016-08-29T04:32:38.000Z,97.71
2016-08-29T04:33:37.333Z,98.19
2016-08-29T04:34:38.172Z,98.1
2016-08-29T04:35:38.089Z,97.24
2016-08-29T04:36:38.210Z,97.14
2016-08-29T04:37:37.419Z,96.85
2016-08-29T04:38:38.153Z,97.14
2016-08-29T04:39:37.474Z,97.14
2016-08-29T04:40:37.504Z,97.24
2016-08-29T04:41:38.223Z,97.42
2016-08-29T04:42:37.534Z,97.33
2016-08-29T04:43:38.273Z,97.91
2016-08-29T04:44:38.298Z,97.91
2016-08-29T04:45:38.343Z,97.91
2016-08-29T04:46:38.337Z,98.38
2016-08-29T04:47:38.624Z,98.38
2016-08-29T04:48:38.390Z,98.96
2016-08-29T04:49:38.582Z,98.91
2016-08-29T04:50:38.608Z,99.1
2016-08-29T04:51:38.641Z,99.25
2016-08-29T04:52:38.604Z,98
2016-08-29T04:53:38.627Z,98.38
2016-08-29T04:54:37.829Z,98.19
2016-08-29T04:55:38.675Z,98.1
2016-08-29T04:56:38.646Z,97.91
2016-08-29T04:57:38.648Z,98
2016-08-29T04:58:37.933Z,97.52
2016-08-29T04:59:37.955Z,97.14
2016-08-29T05:00:38.029Z,97.42
2016-08-29T05:01:38.703Z,97.42
2016-08-29T05:02:38.727Z,97.42
2016-08-29T05:03:38.758Z,97.04
2016-08-29T05:04:38.073Z,97.47
2016-08-29T05:05:38.180Z,97.33
2016-08-29T05:06:38.826Z,97.33
2016-08-29T05:07:38.852Z,96.47
2016-08-29T05:08:38.893Z,96.8
2016-08-29T05:09:38.961Z,96.8
2016-08-29T05:10:38.219Z,96.99
2016-08-29T05:11:38.244Z,96.8
2016-08-29T05:12:38.974Z,97.28
2016-08-29T05:13:38.293Z,96.42
2016-08-29T05:14:38.306Z,96.51
2016-08-29T05:15:38.354Z,96.22
2016-08-29T05:16:38.361Z,96.03
2016-08-29T05:17:39.092Z,96.42
2016-08-29T05:18:39.114Z,96.51
2016-08-29T05:19:39.145Z,95.84
2016-08-29T05:20:39.170Z,96.13
2016-08-29T05:21:39.192Z,96.42
2016-08-29T05:22:39.345Z,96.13
2016-08-29T05:23:39.241Z,95.94
2016-08-29T05:24:39.318Z,95.94
2016-08-29T05:25:38.584Z,95.07
2016-08-29T05:26:39.329Z,95.26
2016-08-29T05:27:39.333Z,95.45
2016-08-29T05:28:39.365Z,95.55
2016-08-29T05:29:39.386Z,95.17
2016-08-29T05:30:38.854Z,95.17
2016-08-29T05:31:39.429Z,95.17
2016-08-29T05:32:38.855Z,95.07
2016-08-29T05:33:38.833Z,95.21
2016-08-29T05:34:39.501Z,94.98
2016-08-29T05:35:38.877Z,95.03
2016-08-29T05:36:39.552Z,95.03
2016-08-29T05:37:38.868Z,94.93
2016-08-29T05:38:39.614Z,95.03
2016-08-29T05:39:39.622Z,94.45
2016-08-29T05:40:39.650Z,94.26
2016-08-29T05:41:38.967Z,94.45
2016-08-29T05:42:38.994Z,94.54
2016-08-29T05:43:39.021Z,94.26
2016-08-29T05:44:39.786Z,94.26
2016-08-29T05:45:39.070Z,94.06
2016-08-29T05:46:39.850Z,93.96
2016-08-29T05:47:39.823Z,93.24
2016-08-29T05:48:39.843Z,92.96
2016-08-29T05:49:39.247Z,92.19
2016-08-29T05:50:39.893Z,91.99
2016-08-29T05:51:39.225Z,91.27
2016-08-29T05:52:39.945Z,91.56
2016-08-29T05:53:40.032Z,91.17
2016-08-29T05:54:39.283Z,90.89
2016-08-29T05:55:40.027Z,91.36
2016-08-29T05:56:40.044Z,91.17
2016-08-29T05:57:39.367Z,91.22
2016-08-29T05:58:39.395Z,91.9
2016-08-29T05:59:39.492Z,91.85
2016-08-29T06:00:40.356Z,91.94
2016-08-29T06:01:39.457Z,91.61
2016-08-29T06:02:39.494Z,91.32
2016-08-29T06:03:40.224Z,91.66
2016-08-29T06:04:40.373Z,91.66
2016-08-29T06:05:39.569Z,91.08
2016-08-29T06:06:39.621Z,90.41
2016-08-29T06:07:39.622Z,90.12
2016-08-29T06:08:40.344Z,90.26
2016-08-29T06:09:40.423Z,90.21
2016-08-29T06:10:40.395Z,90.31
2016-08-29T06:11:40.425Z,90.69
2016-08-29T06:12:40.443Z,91.27
2016-08-29T06:13:39.805Z,92.13
2016-08-29T06:14:40.504Z,92.91
2016-08-29T06:15:40.527Z,93.15
2016-08-29T06:16:39.842Z,94.01
2016-08-29T06:17:39.878Z,94.21
2016-08-29T06:18:40.594Z,94.49
2016-08-29T06:19:39.916Z,95.17
2016-08-29T06:20:40.652Z,94.88
2016-08-29T06:21:40.673Z,95.94
2016-08-29T06:22:40.703Z,95.94
2016-08-29T06:23:40.019Z,96.22
2016-08-29T06:24:40.033Z,96.22
2016-08-29T06:25:40.776Z,95.84
2016-08-29T06:26:40.792Z,96.51
2016-08-29T06:27:40.837Z,96.32
2016-08-29T06:28:40.145Z,96.13
2016-08-29T06:29:40.874Z,96.32
2016-08-29T06:30:40.894Z,97.33
2016-08-29T06:31:40.218Z,97.24
2016-08-29T06:32:40.240Z,97.24
2016-08-29T06:33:40.973Z,97.42
2016-08-29T06:34:40.294Z,98.19
2016-08-29T06:35:41.013Z,98.68
2016-08-29T06:36:40.341Z,98.43
2016-08-29T06:37:41.081Z,99.35
2016-08-29T06:38:40.384Z,99.2
2016-08-29T06:39:41.115Z,99.15
2016-08-29T06:40:40.482Z,99.25
2016-08-29T06:41:41.195Z,99.4
2016-08-29T06:42:41.205Z,99.92
2016-08-29T06:43:40.518Z,99.58
2016-08-29T06:44:41.243Z,99.97
2016-08-29T06:45:40.560Z,99.83
2016-08-29T06:46:41.311Z,99.99
2016-08-29T06:47:40.624Z,99.99
2016-08-29T06:48:41.355Z,99.99
2016-08-29T06:49:41.366Z,99.99
2016-08-29T06:50:41.393Z,99.78
2016-08-29T06:51:40.723Z,99.99
2016-08-29T06:52:41.442Z,99.97
2016-08-29T06:53:41.475Z,99.92
2016-08-29T06:54:41.494Z,99.87
2016-08-29T06:55:40.815Z,99.83
2016-08-29T06:56:41.533Z,99.54
2016-08-29T06:57:41.564Z,99.58
2016-08-29T06:58:40.885Z,99.87
2016-08-29T06:59:40.917Z,99.87
2016-08-29T07:00:41.646Z,99.4
2016-08-29T07:01:41.656Z,99.2
2016-08-29T07:02:40.983Z,98.96
2016-08-29T07:03:41.755Z,99.2
2016-08-29T07:04:41.743Z,98.63
2016-08-29T07:05:41.066Z,99.49
2016-08-29T07:06:41.085Z,99.49
2016-08-29T07:07:41.110Z,99.73
2016-08-29T07:08:41.846Z,99.99
2016-08-29T07:09:41.197Z,99.99
2016-08-29T07:10:41.184Z,99.78
2016-08-29T07:11:41.196Z,99.99
2016-08-29T07:12:41.995Z,99.58
2016-08-29T07:13:41.971Z,99.99
2016-08-29T07:14:41.278Z,99.1
2016-08-29T07:15:42.005Z,99.4
2016-08-29T07:16:41.326Z,99.25
2016-08-29T07:17:42.056Z,97.04
2016-08-29T07:18:41.378Z,95.36
2016-08-29T07:19:41.452Z,95.36
2016-08-29T07:20:41.622Z,94.01
2016-08-29T07:21:42.506Z,93.24
2016-08-29T07:22:41.625Z,93
2016-08-29T07:23:42.506Z,92.43
2016-08-29T07:24:41.646Z,92.19
2016-08-29T07:25:41.791Z,92.71
2016-08-29T07:26:42.324Z,91.85
2016-08-29T07:27:41.797Z,90.98
2016-08-29T07:28:42.382Z,91.85
2016-08-29T07:29:41.714Z,90.93
2016-08-29T07:30:42.385Z,91.22
2016-08-29T07:31:41.758Z,91.51
2016-08-29T07:32:42.424Z,90.73
2016-08-29T07:33:41.744Z,90.35
2016-08-29T07:34:41.780Z,89.63
2016-08-29T07:35:41.811Z,89.63
2016-08-29T07:36:41.821Z,89.24
2016-08-29T07:37:41.854Z,89.29
2016-08-29T07:38:42.644Z,86.25
2016-08-29T07:39:42.624Z,84.17
2016-08-29T07:40:41.940Z,82.71
2016-08-29T07:41:42.683Z,81.2
2016-08-29T07:42:42.692Z,80.33
2016-08-29T07:43:42.753Z,80.24
2016-08-29T07:44:42.034Z,81.01
2016-08-29T07:45:42.771Z,80.05
2016-08-29T07:46:42.103Z,79.8
2016-08-29T07:47:42.127Z,78.92
2016-08-29T07:48:42.146Z,79.99
2016-08-29T07:49:42.874Z,79.95
2016-08-29T07:50:42.912Z,80.91
2016-08-29T07:51:42.221Z,82.32
2016-08-29T07:52:42.250Z,83.25
2016-08-29T07:53:42.976Z,82.76
2016-08-29T07:54:42.303Z,82.23
2016-08-29T07:55:43.041Z,82.23
2016-08-29T07:56:42.364Z,82.9
2016-08-29T07:57:43.090Z,82.42
2016-08-29T07:58:42.414Z,80.97
2016-08-29T07:59:42.452Z,80.24
2016-08-29T08:00:43.190Z,78.83
2016-08-29T08:01:43.196Z,78.48
2016-08-29T08:02:42.526Z,76.74
2016-08-29T08:03:42.545Z,76.59
2016-08-29T08:04:43.280Z,76.78
2016-08-29T08:05:42.604Z,76.64
2016-08-29T08:06:43.343Z,76.55
2016-08-29T08:07:43.356Z,77.13
2016-08-29T08:08:42.672Z,76.64
2016-08-29T08:09:43.458Z,76.26
2016-08-29T08:10:43.453Z,76.35
2016-08-29T08:11:43.494Z,77.42
2016-08-29T08:12:43.495Z,78.25
2016-08-29T08:13:42.816Z,78.92
2016-08-29T08:14:42.855Z,79.66
2016-08-29T08:15:43.595Z,79.08
2016-08-29T08:16:42.904Z,80.68
2016-08-29T08:17:43.638Z,82.28
2016-08-29T08:18:42.966Z,83.3
2016-08-29T08:19:42.983Z,84.03
2016-08-29T08:20:43.724Z,84.9
2016-08-29T08:21:43.757Z,85.82
2016-08-29T08:22:43.064Z,85.91
2016-08-29T08:23:43.093Z,86.59
2016-08-29T08:24:43.813Z,86.49
2016-08-29T08:25:43.939Z,87.26
2016-08-29T08:26:43.173Z,87.65
2016-08-29T08:27:43.904Z,87.46
2016-08-29T08:28:43.922Z,87.99
2016-08-29T08:29:43.327Z,88.67
2016-08-29T08:30:43.991Z,88.57
2016-08-29T08:31:44.014Z,89.05
2016-08-29T08:32:44.032Z,88.95
2016-08-29T08:33:44.065Z,88.47
2016-08-29T08:34:44.081Z,87.41
2016-08-29T08:35:43.407Z,87.46
2016-08-29T08:36:44.252Z,87.99
2016-08-29T08:37:44.160Z,87.84
2016-08-29T08:38:43.544Z,88.04
2016-08-29T08:39:44.212Z,87.07
2016-08-29T08:40:44.236Z,86.15
2016-08-29T08:41:44.257Z,85.77
2016-08-29T08:42:43.578Z,85.38
2016-08-29T08:43:44.313Z,86.54
2016-08-29T08:44:43.642Z,86.69
2016-08-29T08:45:44.362Z,87.17
2016-08-29T08:46:44.403Z,88.67
2016-08-29T08:47:43.722Z,90.93
2016-08-29T08:48:44.453Z,92.52
2016-08-29T08:49:43.805Z,94.78
2016-08-29T08:50:44.502Z,96.66
2016-08-29T08:51:44.522Z,95.03
2016-08-29T08:52:44.549Z,94.59
2016-08-29T08:53:44.582Z,94.59
2016-08-29T08:54:44.589Z,94.93
2016-08-29T08:55:43.922Z,95.12
2016-08-29T08:56:44.642Z,94.26
2016-08-29T08:57:43.969Z,91.61
2016-08-29T08:58:44.099Z,92.76
2016-08-29T08:59:44.016Z,92.86
2016-08-29T09:00:44.781Z,92.47
2016-08-29T09:01:44.074Z,90.98
2016-08-29T09:02:44.800Z,92.04
2016-08-29T09:03:44.824Z,91.85
2016-08-29T09:04:44.847Z,93.29
2016-08-29T09:05:44.161Z,93.05
2016-08-29T09:06:44.200Z,93.44
2016-08-29T09:07:44.924Z,93.34
2016-08-29T09:08:44.234Z,93.82
2016-08-29T09:09:44.970Z,93.24
2016-08-29T09:10:44.293Z,92.86
2016-08-29T09:11:44.322Z,92.57
2016-08-29T09:12:45.061Z,91.13
2016-08-29T09:13:44.372Z,92.29
2016-08-29T09:14:44.394Z,91.8
2016-08-29T09:15:45.130Z,91.56
2016-08-29T09:16:45.151Z,91.36
2016-08-29T09:17:45.194Z,90.98
2016-08-29T09:18:45.197Z,91.75
2016-08-29T09:19:45.234Z,91.46
2016-08-29T09:20:44.554Z,91.99
2016-08-29T09:21:45.274Z,91.6
2016-08-29T09:22:44.582Z,91.22
2016-08-29T09:23:45.312Z,91.7
2016-08-29T09:24:45.364Z,90.97
2016-08-29T09:25:45.401Z,89.63
2016-08-29T09:26:44.778Z,88.28
2016-08-29T09:27:44.728Z,87.65
2016-08-29T09:28:44.750Z,87.3
2016-08-29T09:29:44.781Z,85.09
2016-08-29T09:30:45.493Z,84.99
2016-08-29T09:31:44.837Z,85.42
2016-08-29T09:32:44.840Z,84.84
2016-08-29T09:33:45.586Z,83.4
2016-08-29T09:34:44.889Z,82.72
2016-08-29T09:35:44.922Z,83.01
2016-08-29T09:36:44.955Z,81.95
2016-08-29T09:37:45.678Z,83.11
2016-08-29T09:38:45.074Z,81.57
2016-08-29T09:39:45.032Z,82.72
2016-08-29T09:40:45.049Z,83.2
2016-08-29T09:41:45.783Z,82.57
2016-08-29T09:42:45.102Z,83.05
2016-08-29T09:43:45.844Z,82.57
2016-08-29T09:44:45.163Z,82.53
2016-08-29T09:45:45.881Z,81.32
2016-08-29T09:46:45.220Z,81.32
2016-08-29T09:47:45.234Z,79.97
2016-08-29T09:48:45.974Z,80.54
2016-08-29T09:49:46.004Z,80.83
2016-08-29T09:50:46.035Z,81.41
2016-08-29T09:51:46.062Z,80.83
2016-08-29T09:52:46.070Z,80.74
2016-08-29T09:53:45.393Z,82.18
2016-08-29T09:54:46.124Z,81.35
2016-08-29T09:55:46.168Z,79.72
2016-08-29T09:56:45.477Z,79.72
2016-08-29T09:57:46.212Z,80.1
2016-08-29T09:58:46.237Z,79.43
2016-08-29T09:59:46.258Z,80.68
2016-08-29T10:00:45.583Z,81.12
2016-08-29T10:01:45.612Z,82.38
2016-08-29T10:02:46.332Z,83.44
2016-08-29T10:03:46.361Z,84.41
2016-08-29T10:04:46.404Z,83.63
2016-08-29T10:05:45.713Z,83.78
2016-08-29T10:06:46.441Z,86.19
2016-08-29T10:07:46.471Z,84.99
2016-08-29T10:08:46.490Z,86.63
2016-08-29T10:09:46.590Z,88.56
2016-08-29T10:10:46.543Z,88.56
2016-08-29T10:11:46.596Z,86.87
2016-08-29T10:12:46.598Z,86.68
2016-08-29T10:13:46.637Z,85.52
2016-08-29T10:14:45.958Z,79.19
2016-08-29T10:15:46.022Z,76.3
2016-08-29T10:16:46.710Z,78.91
2016-08-29T10:17:46.032Z,80.83
2016-08-29T10:18:46.762Z,80.58
2016-08-29T10:19:46.805Z,78.66
2016-08-29T10:20:46.832Z,77.34
2016-08-29T10:21:46.842Z,76.24
2016-08-29T10:22:46.161Z,76.05
2016-08-29T10:23:46.187Z,74.6
2016-08-29T10:24:46.207Z,75.18
2016-08-29T10:25:46.230Z,75.76
2016-08-29T10:26:46.344Z,75.67
2016-08-29T10:27:46.293Z,75.18
2016-08-29T10:28:46.324Z,74.79
2016-08-29T10:29:47.043Z,73.96
2016-08-29T10:30:47.090Z,74.16
2016-08-29T10:31:46.601Z,75.47
2016-08-29T10:32:46.423Z,75.76
2016-08-29T10:33:47.163Z,76.86
2016-08-29T10:34:47.182Z,75.99
2016-08-29T10:35:46.594Z,75.22
2016-08-29T10:36:46.532Z,75.51
2016-08-29T10:37:46.560Z,73.52
2016-08-29T10:38:47.313Z,72.94
2016-08-29T10:39:47.373Z,73.61
2016-08-29T10:40:46.645Z,73.42
2016-08-29T10:41:47.384Z,74.77
2016-08-29T10:42:47.397Z,74.38
2016-08-29T10:43:46.723Z,71.3
2016-08-29T10:44:47.463Z,69.94
2016-08-29T10:45:47.482Z,68.75
2016-08-29T10:46:46.797Z,70.48
2016-08-29T10:47:47.543Z,70.84
2016-08-29T10:48:47.558Z,71.32
2016-08-29T10:49:47.592Z,71.26
2016-08-29T10:50:47.664Z,72.13
2016-08-29T10:51:46.948Z,70.68
2016-08-29T10:52:46.958Z,71.39
2016-08-29T10:53:47.687Z,68.1
2016-08-29T10:54:47.738Z,67.66
2016-08-29T10:55:47.760Z,66.4
2016-08-29T10:56:47.773Z,66.4
2016-08-29T10:57:47.098Z,66.94
2016-08-29T10:58:47.845Z,68.2
2016-08-29T10:59:47.927Z,69.32
2016-08-29T11:00:47.179Z,68.84
2016-08-29T11:01:47.212Z,68.78
2016-08-29T11:02:47.236Z,69.17
2016-08-29T11:03:47.276Z,68.62
2016-08-29T11:04:47.993Z,67.27
2016-08-29T11:05:48.033Z,66.59
2016-08-29T11:06:47.442Z,66.69
2016-08-29T11:07:47.385Z,67.36
2016-08-29T11:08:47.415Z,67.17
2016-08-29T11:09:48.134Z,67.69
2016-08-29T11:10:48.162Z,66.72
2016-08-29T11:11:47.494Z,67.08
2016-08-29T11:12:47.515Z,67.36
2016-08-29T11:13:48.253Z,67.27
2016-08-29T11:14:48.273Z,66.98
2016-08-29T11:15:48.311Z,67.27
2016-08-29T11:16:48.332Z,66.88
2016-08-29T11:17:47.664Z,66.5
2016-08-29T11:18:48.387Z,67.56
2016-08-29T11:19:47.754Z,68.14
2016-08-29T11:20:47.734Z,68.43
2016-08-29T11:21:47.755Z,67.46
2016-08-29T11:22:48.500Z,67.17
2016-08-29T11:23:47.813Z,67.75
2016-08-29T11:24:47.953Z,67.08
2016-08-29T11:25:47.863Z,67.27
2016-08-29T11:26:48.595Z,67.27
2016-08-29T11:27:48.637Z,67.36
2016-08-29T11:28:48.657Z,68.62
2016-08-29T11:29:48.682Z,65.98
2016-08-29T11:30:48.015Z,64.53
2016-08-29T11:31:48.036Z,64.82
2016-08-29T11:32:48.770Z,65.5
2016-08-29T11:33:48.084Z,65.17
2016-08-29T11:34:48.138Z,65.85
2016-08-29T11:35:48.584Z,66.14
2016-08-29T11:36:48.881Z,66.43
2016-08-29T11:37:48.906Z,67.2
2016-08-29T11:38:48.928Z,67.07
2016-08-29T11:39:48.247Z,67.75
2016-08-29T11:40:48.277Z,68.04
2016-08-29T11:41:49.022Z,68.07
2016-08-29T11:42:49.039Z,69.42
2016-08-29T11:43:49.065Z,68.36
2016-08-29T11:44:49.094Z,67.62
2016-08-29T11:45:49.111Z,66.85
2016-08-29T11:46:48.439Z,68.01
2016-08-29T11:47:49.173Z,67.17
2016-08-29T11:48:49.200Z,67.08
2016-08-29T11:49:49.223Z,66.88
2016-08-29T11:50:49.257Z,66.3
2016-08-29T11:51:49.286Z,66.01
2016-08-29T11:52:49.314Z,65.53
2016-08-29T11:53:48.634Z,65.14
2016-08-29T11:54:48.653Z,64.95
2016-08-29T11:55:49.393Z,66.5
2016-08-29T11:56:48.725Z,64.79
2016-08-29T11:57:49.443Z,64.4
2016-08-29T11:58:49.476Z,65.56
2016-08-29T11:59:48.814Z,64.72
2016-08-29T12:00:49.542Z,62.59
2016-08-29T12:01:48.856Z,63.85
2016-08-29T12:02:49.584Z,65.4
2016-08-29T12:03:49.731Z,66.43
2016-08-29T12:04:49.643Z,66.33
2016-08-29T12:05:49.678Z,65.37
2016-08-29T12:06:48.989Z,64.4
2016-08-29T12:07:49.740Z,63.92
2016-08-29T12:08:49.053Z,63.24
2016-08-29T12:09:49.806Z,63.82
2016-08-29T12:10:49.824Z,64.4
2016-08-29T12:11:49.831Z,66.11
2016-08-29T12:12:49.865Z,65.92
2016-08-29T12:13:49.201Z,65.24
2016-08-29T12:14:49.211Z,65.53
2016-08-29T12:15:49.236Z,66.59
2016-08-29T12:16:49.995Z,68.2
2016-08-29T12:17:49.300Z,67.82
2016-08-29T12:18:49.317Z,69.2
2016-08-29T12:19:50.080Z,70.06
2016-08-29T12:20:50.107Z,71.19
2016-08-29T12:21:49.413Z,72.21
2016-08-29T12:22:49.429Z,72.6
2016-08-29T12:23:49.475Z,72.21
2016-08-29T12:24:50.190Z,72.5
2016-08-29T12:25:49.516Z,72.69
2016-08-29T12:26:49.541Z,72.89
2016-08-29T12:27:49.560Z,73.85
2016-08-29T12:28:50.305Z,74.3
2016-08-29T12:29:50.326Z,73.75
2016-08-29T12:30:50.358Z,73.75
2016-08-29T12:31:50.404Z,73.37
2016-08-29T12:32:50.496Z,73.08
2016-08-29T12:33:50.434Z,73.53
2016-08-29T12:34:50.456Z,74.58
2016-08-29T12:35:50.496Z,74.88
2016-08-29T12:36:49.804Z,75.07
2016-08-29T12:37:49.834Z,76.18
2016-08-29T12:38:50.567Z,76.15
2016-08-29T12:39:49.926Z,76.15
2016-08-29T12:40:50.618Z,77.31
2016-08-29T12:41:50.727Z,78.17
2016-08-29T12:42:49.961Z,78.13
2016-08-29T12:43:50.700Z,78.81
2016-08-29T12:44:50.716Z,80.35
2016-08-29T12:45:50.746Z,80.83
2016-08-29T12:46:50.065Z,80.79
2016-08-29T12:47:50.794Z,80.98
2016-08-29T12:48:50.108Z,80.63
2016-08-29T12:49:50.843Z,80.06
2016-08-29T12:50:50.874Z,80.25
2016-08-29T12:51:50.200Z,80.11
2016-08-29T12:52:50.227Z,80.73
2016-08-29T12:53:50.949Z,80.35
2016-08-29T12:54:50.997Z,81.3
2016-08-29T12:55:50.997Z,81.4